Time;durP1;ratioP1;P1;durP2;ratioP2;P2;SDS_P1;SDS_P2;PMS_P1;PMS_P2;Temp;Humidity;BMP_temperature;BMP_pressure;BME280_temperature;BME280_humidity;BME280_pressure;Samples;Min_cycle;Max_cycle;Signal;HPM_P1;HPM_P2
2022/05/10 00:00:24;;;;;;;2.38;2.17;;;20.40;54.20;;;;;;5093242;28;20178;-70
2022/05/10 00:02:52;;;;;;;2.17;1.98;;;20.40;54.20;;;;;;5093744;28;20225;-70
2022/05/10 00:05:21;;;;;;;2.10;1.88;;;20.30;54.20;;;;;;5092523;28;20209;-71
2022/05/10 00:07:47;;;;;;;2.30;1.63;;;20.30;54.10;;;;;;5092547;28;20181;-71
2022/05/10 00:10:12;;;;;;;2.33;2.13;;;20.30;54.20;;;;;;5092709;28;20166;-71
2022/05/10 00:12:38;;;;;;;2.88;2.63;;;20.30;54.10;;;;;;5093186;28;20213;-74
2022/05/10 00:15:04;;;;;;;2.67;2.20;;;20.30;54.20;;;;;;5094135;28;20200;-71
2022/05/10 00:17:37;;;;;;;2.33;2.10;;;20.30;54.20;;;;;;5094179;28;20178;-71
2022/05/10 00:20:04;;;;;;;2.40;2.20;;;20.30;54.10;;;;;;5092147;28;20280;-71
2022/05/10 00:22:30;;;;;;;3.53;2.00;;;20.30;54.80;;;;;;5092584;28;20173;-72
2022/05/10 00:24:56;;;;;;;2.92;2.40;;;20.30;54.10;;;;;;5093762;28;20174;-73
2022/05/10 00:27:22;;;;;;;2.47;2.28;;;20.30;54.10;;;;;;5093330;28;20758;-71
2022/05/10 00:29:47;;;;;;;3.63;2.45;;;20.20;54.10;;;;;;5093578;28;20283;-71
2022/05/10 00:32:13;;;;;;;4.00;2.95;;;20.30;54.20;;;;;;5094026;28;20216;-71
2022/05/10 00:34:39;;;;;;;3.67;2.50;;;20.30;54.80;;;;;;5091682;28;20166;-71
2022/05/10 00:37:04;;;;;;;3.28;2.33;;;20.20;54.10;;;;;;5093801;28;20223;-71
2022/05/10 00:39:30;;;;;;;2.30;2.10;;;20.20;54.10;;;;;;5092448;28;20170;-71
2022/05/10 00:42:03;;;;;;;3.30;2.40;;;20.20;54.10;;;;;;5092538;28;20169;-71
2022/05/10 00:44:38;;;;;;;3.97;2.53;;;20.20;54.10;;;;;;5092729;28;20182;-71
2022/05/10 00:47:21;;;;;;;2.80;2.55;;;20.20;54.10;;;;;;5091669;28;20586;-71
2022/05/10 00:50:02;;;;;;;3.20;2.30;;;20.20;54.10;;;;;;5091988;28;20253;-71
2022/05/10 00:52:39;;;;;;;2.88;2.30;;;20.20;54.10;;;;;;5092404;28;20320;-71
2022/05/10 00:55:08;;;;;;;2.92;2.30;;;20.20;54.10;;;;;;5091589;28;20169;-71
2022/05/10 00:57:41;;;;;;;3.47;2.10;;;20.20;54.10;;;;;;5092234;28;20178;-74
2022/05/10 01:00:16;;;;;;;2.85;2.63;;;20.20;54.10;;;;;;5091795;28;20174;-71
2022/05/10 01:03:06;;;;;;;2.90;2.60;;;20.20;54.10;;;;;;5092167;28;20250;-71
2022/05/10 01:05:59;;;;;;;2.50;2.30;;;20.10;54.10;;;;;;5093265;28;20178;-72
2022/05/10 01:08:34;;;;;;;3.65;2.50;;;20.20;54.20;;;;;;5092344;28;20217;-71
2022/05/10 01:11:07;;;;;;;2.85;2.60;;;20.10;54.10;;;;;;5092044;28;20291;-72
2022/05/10 01:13:55;;;;;;;2.70;2.45;;;20.10;54.10;;;;;;5091858;28;20260;-72
2022/05/10 01:16:21;;;;;;;2.70;2.50;;;20.10;54.10;;;;;;5091175;28;20173;-72
2022/05/10 01:18:47;;;;;;;2.80;2.53;;;20.10;54.10;;;;;;5091308;28;20169;-74
2022/05/10 01:21:44;;;;;;;3.10;2.78;;;20.10;54.10;;;;;;5092754;28;20188;-72
2022/05/10 01:24:48;;;;;;;3.63;2.75;;;20.10;54.10;;;;;;5091533;28;20528;-72
2022/05/10 01:27:39;;;;;;;3.33;2.60;;;20.10;54.10;;;;;;5092935;28;20181;-71
2022/05/10 01:30:09;;;;;;;3.30;3.00;;;20.10;54.10;;;;;;5090997;28;20227;-73
2022/05/10 01:35:41;;;;;;;3.63;2.50;;;20.10;54.20;;;;;;5091617;28;20230;-72
2022/05/10 01:38:11;;;;;;;3.83;2.60;;;20.00;54.10;;;;;;5092172;28;20170;-72
2022/05/10 01:40:42;;;;;;;2.72;2.53;;;20.10;54.20;;;;;;5091494;28;20185;-72
2022/05/10 01:43:31;;;;;;;2.90;2.60;;;20.00;54.10;;;;;;5090583;28;20213;-71
2022/05/10 01:46:09;;;;;;;3.60;3.00;;;20.00;54.10;;;;;;5091068;28;20249;-72
2022/05/10 01:48:35;;;;;;;2.65;2.45;;;20.00;54.20;;;;;;5090946;28;20182;-71
2022/05/10 01:51:06;;;;;;;2.80;2.58;;;20.00;54.20;;;;;;5090709;28;20605;-71
2022/05/10 01:53:33;;;;;;;3.40;3.10;;;20.00;54.20;;;;;;5091226;28;20177;-71
2022/05/10 01:56:03;;;;;;;3.00;2.80;;;20.00;54.10;;;;;;5090612;28;20666;-72
2022/05/10 01:58:30;;;;;;;3.10;2.80;;;20.00;54.20;;;;;;5090289;28;20178;-73
2022/05/10 02:01:06;;;;;;;3.03;2.70;;;20.00;54.20;;;;;;5090789;28;20230;-72
2022/05/10 02:03:39;;;;;;;3.28;2.97;;;20.00;54.20;;;;;;5092210;28;20278;-71
2022/05/10 02:06:25;;;;;;;4.72;3.30;;;20.00;54.20;;;;;;5091655;28;20574;-73
2022/05/10 02:09:10;;;;;;;3.25;2.95;;;20.00;54.20;;;;;;5090407;28;20181;-72
2022/05/10 02:11:40;;;;;;;3.30;3.00;;;20.00;54.20;;;;;;5089869;28;20291;-72
2022/05/10 02:14:09;;;;;;;3.90;3.40;;;19.90;54.20;;;;;;5090987;28;20241;-74
2022/05/10 02:16:34;;;;;;;3.88;3.15;;;20.00;54.20;;;;;;5091677;28;20690;-74
2022/05/10 02:19:07;;;;;;;3.17;2.88;;;20.00;54.20;;;;;;5091323;28;20218;-73
2022/05/10 02:21:38;;;;;;;3.40;3.10;;;19.90;54.20;;;;;;5090151;28;20243;-73
2022/05/10 02:24:38;;;;;;;3.30;3.00;;;19.90;54.20;;;;;;5090701;28;20178;-73
2022/05/10 02:27:06;;;;;;;4.05;3.38;;;19.90;54.20;;;;;;5087748;28;20185;-74
2022/05/10 02:29:49;;;;;;;3.20;2.90;;;19.90;54.30;;;;;;5090706;28;20201;-73
2022/05/10 02:35:04;;;;;;;4.90;3.30;;;19.90;54.20;;;;;;5091754;28;20177;-72
2022/05/10 02:37:31;;;;;;;3.83;3.55;;;19.90;54.30;;;;;;5090237;28;20715;-72
2022/05/10 02:39:57;;;;;;;3.28;3.00;;;19.90;54.30;;;;;;5090462;28;20625;-72
2022/05/10 02:42:23;;;;;;;3.78;3.33;;;19.90;54.20;;;;;;5090049;28;20177;-72
2022/05/10 02:44:50;;;;;;;3.50;3.20;;;19.90;54.30;;;;;;5090242;28;20609;-73
2022/05/10 02:47:16;;;;;;;3.85;3.55;;;19.90;54.30;;;;;;5089818;28;20227;-72
2022/05/10 02:49:41;;;;;;;3.60;3.30;;;19.90;54.30;;;;;;5091216;28;20609;-72
2022/05/10 02:52:07;;;;;;;4.20;3.45;;;19.90;54.30;;;;;;5091393;28;20193;-72
2022/05/10 02:54:32;;;;;;;3.92;3.58;;;19.90;54.30;;;;;;5090618;28;20182;-74
2022/05/10 02:56:58;;;;;;;4.10;3.80;;;19.80;54.30;;;;;;5090927;28;20178;-73
2022/05/10 02:59:26;;;;;;;4.05;3.72;;;19.80;54.30;;;;;;5090259;28;20258;-73
2022/05/10 03:01:53;;;;;;;3.90;3.35;;;19.80;54.30;;;;;;5089215;28;20173;-72
2022/05/10 03:04:19;;;;;;;4.90;4.18;;;19.80;54.30;;;;;;5091106;28;20248;-72
2022/05/10 03:06:46;;;;;;;3.95;3.45;;;19.80;54.30;;;;;;5090991;28;20633;-75
2022/05/10 03:09:11;;;;;;;4.47;4.07;;;19.80;54.30;;;;;;5090466;28;20169;-72
2022/05/10 03:11:37;;;;;;;4.15;3.75;;;19.80;54.30;;;;;;5090645;28;20553;-73
2022/05/10 03:14:03;;;;;;;4.57;4.18;;;19.80;54.30;;;;;;5091265;28;20186;-73
2022/05/10 03:16:29;;;;;;;3.50;3.25;;;19.80;54.30;;;;;;5090702;28;20339;-73
2022/05/10 03:18:54;;;;;;;4.63;4.05;;;19.80;54.30;;;;;;5091187;28;20664;-72
2022/05/10 03:21:20;;;;;;;4.78;3.65;;;19.80;54.30;;;;;;5090872;28;20180;-73
2022/05/10 03:23:46;;;;;;;4.00;3.70;;;19.80;54.30;;;;;;5091058;28;20277;-73
2022/05/10 03:26:13;;;;;;;5.38;3.85;;;19.80;54.30;;;;;;5091126;28;20228;-72
2022/05/10 03:28:38;;;;;;;4.55;4.05;;;19.80;54.40;;;;;;5088937;28;21100;-73
2022/05/10 03:31:04;;;;;;;4.68;3.88;;;19.70;54.40;;;;;;5091224;28;20227;-72
2022/05/10 03:33:30;;;;;;;4.32;3.83;;;19.80;54.50;;;;;;5092431;28;20189;-71
2022/05/10 03:35:55;;;;;;;5.68;4.72;;;19.70;54.40;;;;;;5093865;28;20525;-72
2022/05/10 03:38:21;;;;;;;4.05;3.75;;;19.70;54.30;;;;;;5094764;28;20609;-71
2022/05/10 03:40:46;;;;;;;4.35;3.92;;;19.70;54.40;;;;;;5094600;28;20617;-72
2022/05/10 03:43:12;;;;;;;3.83;3.53;;;19.70;54.40;;;;;;5094163;28;20197;-72
2022/05/10 03:45:38;;;;;;;4.63;4.10;;;19.70;54.40;;;;;;5094640;28;20295;-71
2022/05/10 03:48:04;;;;;;;4.40;4.00;;;19.70;54.40;;;;;;5095068;28;20165;-72
2022/05/10 03:50:29;;;;;;;4.35;3.95;;;19.70;54.40;;;;;;5093804;28;20173;-71
2022/05/10 03:52:55;;;;;;;4.40;4.00;;;19.70;54.40;;;;;;5094234;28;20273;-72
2022/05/10 03:55:23;;;;;;;4.70;4.30;;;19.70;54.40;;;;;;5094482;28;20625;-73
2022/05/10 03:57:49;;;;;;;4.18;3.63;;;19.70;54.40;;;;;;5093576;28;20178;-72
2022/05/10 04:00:20;;;;;;;4.20;3.90;;;19.70;54.40;;;;;;5094636;28;20197;-72
2022/05/10 04:02:45;;;;;;;3.90;3.60;;;19.70;54.40;;;;;;5094004;28;20300;-73
2022/05/10 04:05:11;;;;;;;4.28;3.88;;;19.70;54.50;;;;;;5092330;28;20252;-71
2022/05/10 04:07:36;;;;;;;4.22;3.90;;;19.70;55.10;;;;;;5094261;28;20186;-73
2022/05/10 04:10:02;;;;;;;4.60;4.20;;;19.70;54.50;;;;;;5094109;28;20178;-73
2022/05/10 04:12:28;;;;;;;4.20;3.90;;;19.70;54.50;;;;;;5093687;28;20209;-72
2022/05/10 04:14:53;;;;;;;4.65;4.30;;;19.60;54.50;;;;;;5093932;28;21031;-74
2022/05/10 04:17:22;;;;;;;4.88;4.40;;;19.70;54.50;;;;;;5094081;28;20181;-73
2022/05/10 04:19:48;;;;;;;4.13;3.83;;;19.70;54.50;;;;;;5093661;28;20269;-75
2022/05/10 04:22:14;;;;;;;4.57;4.18;;;19.70;54.50;;;;;;5094574;28;20249;-72
2022/05/10 04:24:40;;;;;;;4.57;4.18;;;19.70;54.50;;;;;;5093118;28;20261;-75
2022/05/10 04:27:05;;;;;;;4.57;4.18;;;19.60;54.40;;;;;;5094218;28;20200;-73
2022/05/10 04:29:31;;;;;;;4.60;4.20;;;19.70;54.50;;;;;;5093971;28;20170;-72
2022/05/10 04:31:56;;;;;;;4.40;4.10;;;19.60;54.60;;;;;;5092734;28;20202;-73
2022/05/10 04:34:22;;;;;;;4.70;4.30;;;19.70;54.60;;;;;;5093874;28;20238;-72
2022/05/10 04:36:47;;;;;;;4.30;3.97;;;19.60;55.20;;;;;;5093124;28;20173;-73
2022/05/10 04:39:13;;;;;;;4.60;4.20;;;19.60;54.50;;;;;;5092985;28;20177;-72
2022/05/10 04:41:42;;;;;;;4.53;4.13;;;19.60;54.50;;;;;;5093359;28;20198;-72
2022/05/10 04:44:09;;;;;;;4.78;4.38;;;19.70;54.60;;;;;;5092179;28;20170;-72
2022/05/10 04:46:36;;;;;;;4.93;4.45;;;19.70;54.50;;;;;;5091791;28;20201;-73
2022/05/10 04:49:02;;;;;;;4.30;3.90;;;19.60;54.60;;;;;;5093671;28;20178;-72
2022/05/10 04:51:28;;;;;;;4.53;3.97;;;19.60;54.50;;;;;;5093076;28;20205;-72
2022/05/10 04:53:54;;;;;;;4.70;4.30;;;19.60;54.60;;;;;;5092467;28;20181;-72
2022/05/10 04:56:20;;;;;;;4.35;3.97;;;19.70;54.60;;;;;;5093419;28;20177;-75
2022/05/10 04:58:45;;;;;;;4.95;4.45;;;19.60;54.50;;;;;;5093062;28;20617;-74
2022/05/10 05:01:12;;;;;;;4.45;4.05;;;19.70;54.60;;;;;;5092737;28;20170;-72
2022/05/10 05:03:47;;;;;;;5.15;4.65;;;19.70;54.60;;;;;;5091673;28;20249;-73
2022/05/10 05:06:13;;;;;;;4.57;4.20;;;19.60;54.60;;;;;;5092265;28;20173;-72
2022/05/10 05:08:38;;;;;;;5.13;4.60;;;19.70;54.60;;;;;;5092488;28;20322;-73
2022/05/10 05:11:04;;;;;;;5.60;5.07;;;19.60;54.60;;;;;;5093325;28;20238;-73
2022/05/10 05:13:29;;;;;;;4.72;4.30;;;19.70;54.60;;;;;;5093279;28;20174;-73
2022/05/10 05:15:55;;;;;;;4.53;4.13;;;19.70;54.60;;;;;;5091869;28;20260;-73
2022/05/10 05:18:21;;;;;;;5.70;5.10;;;19.70;54.70;;;;;;5092859;28;20170;-73
2022/05/10 05:20:47;;;;;;;4.65;4.28;;;19.70;54.60;;;;;;5092442;28;20223;-75
2022/05/10 05:23:13;;;;;;;4.65;4.25;;;19.70;54.70;;;;;;5092163;28;20177;-72
2022/05/10 05:25:41;;;;;;;4.53;4.13;;;19.70;54.70;;;;;;5092812;28;20197;-74
2022/05/10 05:28:07;;;;;;;4.97;4.57;;;19.70;54.70;;;;;;5092223;28;20234;-72
2022/05/10 05:30:32;;;;;;;4.82;4.43;;;19.70;54.70;;;;;;5092747;28;20260;-72
2022/05/10 05:32:58;;;;;;;4.57;4.18;;;19.70;54.70;;;;;;5092502;28;20228;-72
2022/05/10 05:35:24;;;;;;;4.85;4.45;;;19.70;54.70;;;;;;5091991;28;20641;-72
2022/05/10 05:37:50;;;;;;;4.88;4.47;;;19.70;54.70;;;;;;5092531;28;20181;-72
2022/05/10 05:40:16;;;;;;;4.53;4.22;;;19.70;54.70;;;;;;5092470;28;20174;-72
2022/05/10 05:42:42;;;;;;;4.88;4.25;;;19.70;54.70;;;;;;5091614;28;20548;-72
2022/05/10 05:45:08;;;;;;;5.35;4.85;;;19.70;54.70;;;;;;5092616;28;20181;-73
2022/05/10 05:47:34;;;;;;;5.38;4.90;;;19.70;54.70;;;;;;5092544;28;20178;-72
2022/05/10 05:49:59;;;;;;;5.22;4.75;;;19.70;54.80;;;;;;5091392;28;20231;-72
2022/05/10 05:52:25;;;;;;;4.93;4.63;;;19.70;54.80;;;;;;5092677;28;20301;-72
2022/05/10 05:54:51;;;;;;;5.20;4.70;;;19.70;54.80;;;;;;5090837;28;21529;-74
2022/05/10 05:57:16;;;;;;;5.47;5.03;;;19.70;54.80;;;;;;5089138;28;20641;-73
2022/05/10 05:59:42;;;;;;;5.32;4.90;;;19.70;54.80;;;;;;5092006;28;20223;-71
2022/05/10 06:02:10;;;;;;;5.03;4.53;;;19.70;54.80;;;;;;5092143;28;20513;-72
2022/05/10 06:04:36;;;;;;;5.60;5.10;;;19.70;54.90;;;;;;5090504;28;20301;-74
2022/05/10 06:07:01;;;;;;;8.02;5.32;;;19.70;54.80;;;;;;5092252;28;20224;-76
2022/05/10 06:09:27;;;;;;;6.13;5.40;;;19.70;54.90;;;;;;5092369;28;20606;-75
2022/05/10 06:11:52;;;;;;;6.95;5.43;;;19.70;54.70;;;;;;5091278;28;20668;-74
2022/05/10 06:14:18;;;;;;;4.68;4.28;;;19.70;54.70;;;;;;5092572;28;20177;-77
2022/05/10 06:16:44;;;;;;;4.80;4.30;;;19.70;54.70;;;;;;5091890;28;20178;-76
2022/05/10 06:19:10;;;;;;;5.18;4.68;;;19.70;54.70;;;;;;5091285;28;20659;-72
2022/05/10 06:21:35;;;;;;;6.82;5.22;;;19.80;54.80;;;;;;5091569;28;20189;-73
2022/05/10 06:24:01;;;;;;;5.25;4.75;;;19.80;54.90;;;;;;5092119;28;20178;-73
2022/05/10 06:26:26;;;;;;;7.10;4.55;;;19.80;54.90;;;;;;5091439;28;20173;-74
2022/05/10 06:28:52;;;;;;;6.28;4.65;;;19.80;54.70;;;;;;5091638;28;20178;-76
2022/05/10 06:31:17;;;;;;;4.90;4.40;;;19.80;54.70;;;;;;5091179;28;20284;-75
2022/05/10 06:33:52;;;;;;;5.68;4.65;;;19.90;54.90;;;;;;5091877;28;20173;-78
2022/05/10 06:36:17;;;;;;;26.92;5.80;;;19.80;54.80;;;;;;5091985;28;20245;-77
2022/05/10 06:38:43;;;;;;;5.13;4.63;;;19.80;54.80;;;;;;5090931;28;20260;-74
2022/05/10 06:41:08;;;;;;;5.25;4.63;;;19.80;54.80;;;;;;5091802;28;20672;-74
2022/05/10 06:43:38;;;;;;;6.30;4.43;;;19.80;54.80;;;;;;5091861;28;20235;-75
2022/05/10 06:46:15;;;;;;;5.10;4.70;;;19.90;55.00;;;;;;5091146;28;20566;-73
2022/05/10 06:48:40;;;;;;;5.93;4.68;;;19.90;54.90;;;;;;5091957;28;20244;-73
2022/05/10 06:51:06;;;;;;;5.70;4.70;;;19.90;54.70;;;;;;5091576;28;20632;-73
2022/05/10 06:53:32;;;;;;;6.15;4.35;;;19.90;55.00;;;;;;5091297;28;20190;-72
2022/05/10 06:55:58;;;;;;;6.13;5.07;;;19.90;55.20;;;;;;5091375;28;20224;-74
2022/05/10 06:58:23;;;;;;;8.02;5.32;;;19.90;55.10;;;;;;5091706;28;20594;-75
2022/05/10 07:00:49;;;;;;;8.48;4.82;;;20.00;55.30;;;;;;5090748;28;20252;-77
2022/05/10 07:03:15;;;;;;;10.40;5.38;;;20.00;55.30;;;;;;5091532;28;20351;-73
2022/05/10 07:05:45;;;;;;;9.57;5.47;;;19.90;55.20;;;;;;5091442;28;20187;-74
2022/05/10 07:08:11;;;;;;;12.80;5.85;;;19.90;55.20;;;;;;5091587;28;20188;-73
2022/05/10 07:10:37;;;;;;;8.27;6.15;;;20.00;55.20;;;;;;5095420;28;20174;-72
2022/05/10 07:13:02;;;;;;;7.32;6.25;;;20.00;55.20;;;;;;5095474;28;20216;-76
2022/05/10 07:15:28;;;;;;;7.57;6.13;;;20.00;55.30;;;;;;5095117;28;20174;-75
2022/05/10 07:17:54;;;;;;;9.75;6.35;;;20.00;55.30;;;;;;5095290;28;20953;-76
2022/05/10 07:20:19;;;;;;;8.55;6.03;;;20.00;55.30;;;;;;5095559;28;20174;-75
2022/05/10 07:22:46;;;;;;;7.38;5.82;;;20.00;55.30;;;;;;5094743;28;20173;-74
2022/05/10 07:25:19;;;;;;;8.18;5.90;;;20.00;55.30;;;;;;5095294;28;20173;-77
2022/05/10 07:27:45;;;;;;;7.63;5.75;;;20.00;55.30;;;;;;5094475;28;20178;-77
2022/05/10 07:30:11;;;;;;;6.60;5.75;;;20.00;55.30;;;;;;5095337;28;20234;-78
2022/05/10 07:32:36;;;;;;;6.82;5.65;;;20.00;55.30;;;;;;5095083;28;20717;-77
2022/05/10 07:35:03;;;;;;;5.72;5.22;;;20.00;55.30;;;;;;5094551;28;20170;-77
2022/05/10 07:37:29;;;;;;;6.82;5.30;;;20.00;55.20;;;;;;5095098;28;20214;-76
2022/05/10 07:39:54;;;;;;;6.13;5.53;;;20.00;55.20;;;;;;5094861;28;20204;-77
2022/05/10 07:42:20;;;;;;;6.90;4.93;;;20.00;55.20;;;;;;5094049;28;20573;-76
2022/05/10 07:44:45;;;;;;;7.18;4.95;;;20.00;55.30;;;;;;5094810;28;20173;-76
2022/05/10 07:47:11;;;;;;;5.70;5.10;;;20.00;55.10;;;;;;5095168;28;20200;-73
2022/05/10 07:49:36;;;;;;;5.63;5.07;;;20.10;55.20;;;;;;5094044;28;20189;-74
2022/05/10 07:52:03;;;;;;;7.35;5.18;;;20.20;55.00;;;;;;5094834;28;20229;-73
2022/05/10 07:54:29;;;;;;;5.07;4.68;;;20.20;55.00;;;;;;5094704;28;20683;-75
2022/05/10 07:56:54;;;;;;;5.70;5.07;;;20.20;54.90;;;;;;5094093;28;20190;-79
2022/05/10 07:59:20;;;;;;;5.85;5.13;;;20.30;55.00;;;;;;5094804;28;20192;-76
2022/05/10 08:01:45;;;;;;;5.60;5.10;;;20.20;55.10;;;;;;5094485;28;20203;-76
2022/05/10 08:04:11;;;;;;;5.80;4.88;;;20.20;55.10;;;;;;5093705;28;20304;-76
2022/05/10 08:06:37;;;;;;;5.85;5.32;;;20.20;55.10;;;;;;5094418;28;20307;-77
2022/05/10 08:09:02;;;;;;;5.22;4.72;;;20.20;55.20;;;;;;5096074;28;20200;-75
2022/05/10 08:11:28;;;;;;;5.95;4.85;;;20.20;55.20;;;;;;5093744;28;20660;-74
2022/05/10 08:13:53;;;;;;;5.93;5.15;;;20.20;55.10;;;;;;5093159;28;20185;-75
2022/05/10 08:16:19;;;;;;;4.80;4.40;;;20.30;55.00;;;;;;5094764;28;20185;-76
2022/05/10 08:18:48;;;;;;;6.72;5.25;;;20.30;55.00;;;;;;5094687;28;20174;-75
2022/05/10 08:21:14;;;;;;;8.68;4.32;;;20.40;55.00;;;;;;5093600;28;20188;-77
2022/05/10 08:23:39;;;;;;;4.60;4.20;;;20.40;55.00;;;;;;5094379;28;20551;-76
2022/05/10 08:26:05;;;;;;;5.43;4.95;;;20.30;55.70;;;;;;5093735;28;20170;-76
2022/05/10 08:28:32;;;;;;;3.90;3.60;;;20.30;55.20;;;;;;5094333;28;20182;-77
2022/05/10 08:30:58;;;;;;;5.88;4.43;;;20.30;55.30;;;;;;5092906;28;20705;-78
2022/05/10 08:33:28;;;;;;;5.05;4.65;;;20.30;55.30;;;;;;5093990;28;20177;-75
2022/05/10 08:35:55;;;;;;;5.07;4.05;;;20.30;55.40;;;;;;5093503;28;20695;-79
2022/05/10 08:38:20;;;;;;;4.65;4.25;;;20.40;55.30;;;;;;5093157;28;20178;-76
2022/05/10 08:40:55;;;;;;;5.20;4.70;;;20.40;55.30;;;;;;5093303;28;20177;-76
2022/05/10 08:43:24;;;;;;;6.45;4.93;;;20.40;55.30;;;;;;5092521;28;20617;-77
2022/05/10 08:45:50;;;;;;;4.72;4.20;;;20.40;55.30;;;;;;5091441;28;20620;-76
2022/05/10 08:48:15;;;;;;;4.95;4.55;;;20.40;55.30;;;;;;5092657;28;20174;-75
2022/05/10 08:50:44;;;;;;;5.00;4.60;;;20.40;55.40;;;;;;5093514;28;20223;-74
2022/05/10 08:53:09;;;;;;;4.88;4.40;;;20.40;55.40;;;;;;5092003;28;20217;-75
2022/05/10 08:55:39;;;;;;;6.00;4.60;;;20.40;55.50;;;;;;5093215;28;20201;-77
2022/05/10 08:58:04;;;;;;;5.10;4.60;;;20.30;55.40;;;;;;5093842;28;20181;-78
2022/05/10 09:00:39;;;;;;;4.75;4.35;;;20.30;55.50;;;;;;5092709;28;20174;-78
2022/05/10 09:03:41;;;;;;;5.30;4.80;;;20.30;55.50;;;;;;5075978;28;20219;-75
2022/05/10 09:06:12;;;;;;;4.93;4.53;;;20.30;55.60;;;;;;5040110;28;20272;-76
2022/05/10 09:08:56;;;;;;;5.32;4.30;;;20.30;55.60;;;;;;5092218;28;20182;-76
2022/05/10 09:11:21;;;;;;;4.80;4.40;;;20.30;55.70;;;;;;5094445;28;20335;-77
2022/05/10 09:13:47;;;;;;;6.38;4.68;;;20.30;55.70;;;;;;5090913;28;20580;-75
2022/05/10 09:16:13;;;;;;;5.38;4.43;;;20.30;55.80;;;;;;5091703;28;20235;-73
2022/05/10 09:18:57;;;;;;;6.50;4.18;;;20.30;56.10;;;;;;5092618;28;20639;-74
2022/05/10 09:21:27;;;;;;;5.00;4.60;;;20.40;56.00;;;;;;5092456;28;20177;-73
2022/05/10 09:24:11;;;;;;;5.70;4.18;;;20.40;56.10;;;;;;5092643;28;20178;-75
2022/05/10 09:26:42;;;;;;;8.00;4.65;;;20.50;56.10;;;;;;5092513;28;20189;-74
2022/05/10 09:29:33;;;;;;;5.15;4.22;;;20.50;55.80;;;;;;5092291;28;20185;-73
2022/05/10 09:35:12;;;;;;;5.07;4.57;;;20.60;55.90;;;;;;5090611;28;20230;-74
2022/05/10 09:37:54;;;;;;;4.85;4.45;;;20.60;56.00;;;;;;5092519;28;20166;-74
2022/05/10 09:40:26;;;;;;;5.18;4.68;;;20.60;55.90;;;;;;5091622;28;20593;-74
2022/05/10 09:42:53;;;;;;;4.63;4.22;;;20.60;55.90;;;;;;5091607;28;20659;-74
2022/05/10 09:45:20;;;;;;;4.75;4.35;;;20.60;55.80;;;;;;5092450;28;20177;-72
2022/05/10 09:48:19;;;;;;;5.22;4.07;;;20.70;55.70;;;;;;5092364;28;20230;-72
2022/05/10 09:50:51;;;;;;;5.35;4.70;;;20.70;55.60;;;;;;5091639;28;20210;-75
2022/05/10 09:53:23;;;;;;;5.57;4.30;;;20.80;55.50;;;;;;5092499;28;20223;-73
2022/05/10 09:55:58;;;;;;;6.60;4.35;;;20.80;55.50;;;;;;5091391;28;20185;-75
2022/05/10 09:58:35;;;;;;;5.53;4.65;;;20.80;55.60;;;;;;5091332;28;20180;-73
2022/05/10 10:01:03;;;;;;;5.40;4.25;;;20.70;55.60;;;;;;5091419;28;20173;-72
2022/05/10 10:03:34;;;;;;;4.82;4.40;;;20.70;55.60;;;;;;5091549;28;20289;-71
2022/05/10 10:06:19;;;;;;;4.57;4.18;;;20.70;55.60;;;;;;5092225;28;20170;-73
2022/05/10 10:08:46;;;;;;;4.63;4.20;;;20.80;55.60;;;;;;5091807;28;20288;-76
2022/05/10 10:11:33;;;;;;;6.63;4.40;;;20.70;55.60;;;;;;5091438;28;20174;-76
2022/05/10 10:14:06;;;;;;;4.57;4.18;;;20.80;55.50;;;;;;5092026;28;20185;-78
2022/05/10 10:16:51;;;;;;;4.40;4.00;;;20.80;55.50;;;;;;5091698;28;20173;-77
2022/05/10 10:19:31;;;;;;;5.10;4.53;;;20.80;55.50;;;;;;5092291;28;20173;-77
2022/05/10 10:21:59;;;;;;;4.60;4.20;;;20.80;55.50;;;;;;5091087;28;20276;-77
2022/05/10 10:24:37;;;;;;;7.07;4.18;;;20.80;55.40;;;;;;5089945;28;20515;-75
2022/05/10 10:27:06;;;;;;;4.70;4.30;;;20.90;55.30;;;;;;5091956;28;20173;-74
2022/05/10 10:29:51;;;;;;;5.03;4.25;;;20.90;55.30;;;;;;5092168;28;20272;-76
2022/05/10 10:32:32;;;;;;;4.57;3.97;;;21.00;55.40;;;;;;5090234;28;20257;-73
2022/05/10 10:35:20;;;;;;;5.47;4.25;;;21.00;55.40;;;;;;5075037;28;20165;-74
2022/05/10 10:37:54;;;;;;;5.03;4.45;;;21.00;55.40;;;;;;5089798;28;20184;-76
2022/05/10 10:40:37;;;;;;;4.50;3.97;;;21.10;55.40;;;;;;5090909;28;20269;-73
2022/05/10 10:43:21;;;;;;;4.45;4.05;;;21.10;55.40;;;;;;5074696;28;20177;-72
2022/05/10 10:45:49;;;;;;;5.63;4.68;;;21.10;55.30;;;;;;5093856;28;20172;-75
2022/05/10 10:48:24;;;;;;;4.75;4.13;;;21.10;55.30;;;;;;5094994;28;20177;-72
2022/05/10 10:50:49;;;;;;;4.40;4.07;;;21.10;55.30;;;;;;5095726;28;20173;-74
2022/05/10 10:53:15;;;;;;;4.93;3.70;;;21.20;55.20;;;;;;5095241;28;20667;-71
2022/05/10 10:56:06;;;;;;;4.90;4.40;;;21.10;55.10;;;;;;5095638;28;20173;-75
2022/05/10 10:58:54;;;;;;;4.00;3.65;;;21.10;55.20;;;;;;5079752;28;20582;-74
2022/05/10 11:01:28;;;;;;;5.55;4.18;;;21.10;55.10;;;;;;5094954;28;20219;-72
2022/05/10 11:04:28;;;;;;;4.35;3.95;;;21.10;55.20;;;;;;5095218;28;20224;-76
2022/05/10 11:06:53;;;;;;;4.20;3.83;;;21.20;55.20;;;;;;5094718;28;20574;-70
2022/05/10 11:09:27;;;;;;;4.28;3.85;;;21.30;55.10;;;;;;5094524;28;20185;-68
2022/05/10 11:12:30;;;;;;;4.40;4.00;;;21.40;55.00;;;;;;5094154;28;20194;-73
2022/05/10 11:15:27;;;;;;;3.80;3.47;;;21.40;54.90;;;;;;5093758;28;20177;-72
2022/05/10 11:18:13;;;;;;;4.45;4.05;;;21.50;54.80;;;;;;5095408;28;20173;-70
2022/05/10 11:20:45;;;;;;;5.93;4.05;;;21.40;54.90;;;;;;5094700;28;20195;-71
2022/05/10 11:23:10;;;;;;;5.63;4.22;;;21.40;54.80;;;;;;5095507;28;20269;-70
2022/05/10 11:25:58;;;;;;;4.45;4.03;;;21.40;54.90;;;;;;5093828;28;20326;-72
2022/05/10 11:29:10;;;;;;;4.28;3.90;;;21.40;54.90;;;;;;5094750;28;20302;-72
2022/05/10 11:31:43;;;;;;;6.10;4.25;;;21.30;55.00;;;;;;5012387;28;20205;-72
2022/05/10 11:34:35;;;;;;;4.32;3.88;;;21.30;55.00;;;;;;4996573;28;20186;-70
2022/05/10 11:37:01;;;;;;;4.60;3.60;;;21.30;55.10;;;;;;5068589;28;20181;-70
2022/05/10 11:39:48;;;;;;;4.43;3.78;;;21.30;55.10;;;;;;5093870;28;20305;-71
2022/05/10 11:42:37;;;;;;;5.07;3.88;;;21.30;55.00;;;;;;5093197;28;20229;-70
2022/05/10 11:45:10;;;;;;;4.45;3.67;;;21.30;55.00;;;;;;5093763;28;20252;-70
2022/05/10 11:47:49;;;;;;;4.57;3.85;;;21.30;55.00;;;;;;5093167;28;20656;-71
2022/05/10 11:50:32;;;;;;;6.05;4.10;;;21.30;55.00;;;;;;5094891;28;20208;-71
2022/05/10 11:53:06;;;;;;;5.40;3.67;;;21.30;55.00;;;;;;5094585;28;20223;-72
2022/05/10 11:55:57;;;;;;;4.40;4.00;;;21.30;55.00;;;;;;5092653;28;20169;-72
2022/05/10 11:58:23;;;;;;;4.40;4.00;;;21.30;55.00;;;;;;5093550;28;20195;-70
2022/05/10 12:01:00;;;;;;;3.97;3.58;;;21.30;55.00;;;;;;5093130;28;20178;-70
2022/05/10 12:03:43;;;;;;;4.63;4.20;;;21.30;55.00;;;;;;5092279;28;20256;-71
2022/05/10 12:06:23;;;;;;;4.25;3.70;;;21.30;55.00;;;;;;5094740;28;20176;-70
2022/05/10 12:08:52;;;;;;;4.40;4.00;;;21.30;55.00;;;;;;5093301;28;20198;-73
2022/05/10 12:11:32;;;;;;;4.32;4.03;;;21.30;54.90;;;;;;5094117;28;20178;-73
2022/05/10 12:22:50;;;;;;;4.85;3.97;;;21.30;54.70;;;;;;5094126;28;20265;-73
2022/05/10 12:25:52;;;;;;;4.50;4.07;;;21.40;54.70;;;;;;5093325;28;20235;-71
2022/05/10 12:28:47;;;;;;;4.15;3.85;;;21.40;54.70;;;;;;5088092;28;20182;-72
2022/05/10 12:31:55;;;;;;;4.82;3.75;;;21.40;54.70;;;;;;5093142;28;20202;-71
2022/05/10 12:34:48;;;;;;;4.22;3.70;;;21.40;55.40;;;;;;5094226;28;20264;-70
2022/05/10 12:37:38;;;;;;;4.93;3.60;;;21.40;54.80;;;;;;5093186;28;20250;-70
2022/05/10 12:40:10;;;;;;;4.80;3.70;;;21.40;54.80;;;;;;5084602;28;20186;-72
2022/05/10 12:42:53;;;;;;;4.47;4.07;;;21.40;54.70;;;;;;5093483;28;20181;-70
2022/05/10 12:45:53;;;;;;;4.35;3.75;;;21.40;54.70;;;;;;5091655;28;20702;-69
2022/05/10 12:48:50;;;;;;;4.90;4.30;;;21.40;54.80;;;;;;5077775;28;20186;-71
2022/05/10 12:51:22;;;;;;;5.28;4.10;;;21.30;54.90;;;;;;5091854;28;20174;-72
2022/05/10 12:53:57;;;;;;;4.35;3.95;;;21.30;54.90;;;;;;5093089;28;20181;-72
2022/05/10 12:56:24;;;;;;;4.65;3.90;;;21.30;54.90;;;;;;5093775;28;20675;-72
2022/05/10 12:58:51;;;;;;;4.28;3.92;;;21.40;54.80;;;;;;5092418;28;20174;-71
2022/05/10 13:01:17;;;;;;;4.35;3.88;;;21.40;54.60;;;;;;5091825;28;20178;-69
2022/05/10 13:03:46;;;;;;;4.10;3.80;;;21.50;54.50;;;;;;5071488;28;20222;-71
2022/05/10 13:06:52;;;;;;;4.13;3.75;;;21.60;54.40;;;;;;5087145;28;20597;-71
2022/05/10 13:09:43;;;;;;;3.70;3.40;;;21.60;54.40;;;;;;5072815;28;20201;-72
2022/05/10 13:12:11;;;;;;;4.60;4.10;;;21.50;54.50;;;;;;5087912;28;20224;-76
2022/05/10 13:14:45;;;;;;;4.38;3.90;;;21.50;54.60;;;;;;5088209;28;20657;-73
2022/05/10 13:17:12;;;;;;;4.25;3.85;;;21.40;54.60;;;;;;5088648;28;20178;-73
2022/05/10 13:19:42;;;;;;;4.18;3.83;;;21.40;54.70;;;;;;5087556;28;20175;-74
2022/05/10 13:22:09;;;;;;;5.93;4.07;;;21.40;54.70;;;;;;5088272;28;20170;-73
2022/05/10 13:24:34;;;;;;;4.40;4.00;;;21.40;54.60;;;;;;5088038;28;20174;-74